Time;durP1;ratioP1;P1;durP2;ratioP2;P2;SDS_P1;SDS_P2;PMS_P1;PMS_P2;Temp;Humidity;BMP_temperature;BMP_pressure;BME280_temperature;BME280_humidity;BME280_pressure;Samples;Min_cycle;Max_cycle;Signal;HPM_P1;HPM_P2
2022/02/14 00:00:32;;;;;;;15.45;8.95;;;;;;;10.50;52.26;99560.25;4815193;29;120288;-87
2022/02/14 00:03:00;;;;;;;16.95;9.70;;;;;;;10.67;52.88;99583.97;4832164;28;119939;-89
2022/02/14 00:05:36;;;;;;;;;;;;;;;;;;;;;
2022/02/14 00:08:12;;;;;;;19.25;9.80;;;;;;;10.47;53.08;99553.00;4818203;29;120119;-87
2022/02/14 00:10:51;;;;;;;;;;;;;;;;;;;;;
2022/02/14 00:13:33;;;;;;;;;;;;;;;;;;;;;
2022/02/14 00:16:09;;;;;;;17.30;9.57;;;;;;;10.48;52.79;99554.50;4831506;28;122027;-88
2022/02/14 00:18:37;;;;;;;15.32;10.25;;;;;;;10.47;52.97;99551.00;4835545;28;120685;-89
2022/02/14 00:21:43;;;;;;;;;;;;;;;;;;;;;
2022/02/14 00:24:30;;;;;;;16.52;10.60;;;;;;;10.59;52.69;99551.91;4825062;28;125931;-91
2022/02/14 00:27:01;;;;;;;18.50;10.05;;;;;;;10.47;52.69;99528.31;4802393;29;121768;-87
2022/02/14 00:29:37;;;;;;;19.42;10.15;;;;;;;10.64;52.99;99567.69;4831519;28;120522;-90
2022/02/14 00:32:34;;;;;;;17.60;9.68;;;;;;;10.42;52.81;99516.06;4815990;28;120045;-86
2022/02/14 00:35:16;;;;;;;15.57;9.60;;;;;;;10.50;53.03;99524.63;4819463;29;121985;-89
2022/02/14 00:37:55;;;;;;;;;;;;;;;;;;;;;
2022/02/14 00:40:26;;;;;;;16.02;9.23;;;;;;;10.67;52.74;99544.81;4813627;29;119708;-88
2022/02/14 00:43:05;;;;;;;16.45;9.38;;;;;;;10.71;53.12;99543.38;4820741;29;119373;-89
2022/02/14 00:45:34;;;;;;;16.63;9.93;;;;;;;10.70;53.10;99536.38;4813321;29;119989;-90
2022/02/14 00:48:02;;;;;;;15.93;9.45;;;;;;;10.58;53.22;99503.78;4830734;28;122018;-89
2022/02/14 00:51:13;;;;;;;;;;;;;;;;;;;;;
2022/02/14 00:53:57;;;;;;;16.58;9.43;;;;;;;10.91;52.82;99531.66;4815318;29;119871;-90
2022/02/14 00:56:45;;;;;;;15.85;9.75;;;;;;;10.93;52.99;99520.97;4816543;29;122346;-91
2022/02/14 00:59:24;;;;;;;14.75;9.48;;;;;;;11.04;52.52;99526.56;4813086;29;122905;-88
2022/02/14 01:02:00;;;;;;;18.52;9.25;;;;;;;10.92;52.46;99507.72;4814081;29;120072;-91
2022/02/14 01:04:45;;;;;;;14.85;9.32;;;;;;;10.99;52.46;99502.56;4830094;28;121485;-90
2022/02/14 01:07:34;;;;;;;13.20;8.80;;;;;;;11.18;53.36;99527.00;4832613;28;122885;-89
2022/02/14 01:10:10;;;;;;;16.52;9.50;;;;;;;10.96;52.45;99481.59;4797467;29;122500;-89
2022/02/14 01:12:40;;;;;;;16.38;9.50;;;;;;;10.91;52.48;99479.53;4815529;29;122917;-90
2022/02/14 01:15:27;;;;;;;13.93;9.23;;;;;;;11.18;53.64;99508.53;4829106;28;119739;-91
2022/02/14 01:18:14;;;;;;;14.63;8.73;;;;;;;10.93;53.45;99463.34;4828993;28;121588;-90
2022/02/14 01:21:29;;;;;;;15.45;8.45;;;;;;;11.21;52.28;99498.56;4827104;28;122155;-88
2022/02/14 01:24:09;;;;;;;13.10;9.20;;;;;;;10.99;52.30;99458.69;4801896;29;119748;-90
2022/02/14 01:26:45;;;;;;;13.90;8.70;;;;;;;11.20;52.05;99489.59;4829470;28;120002;-89
2022/02/14 01:29:13;;;;;;;14.32;8.30;;;;;;;11.22;52.14;99492.59;4812845;29;123051;-84
2022/02/14 01:31:44;;;;;;;16.52;9.07;;;;;;;11.24;52.13;99489.38;4818764;29;120194;-90
2022/02/14 01:34:18;;;;;;;16.38;8.85;;;;;;;11.24;52.36;99483.88;4829544;28;123000;-90
2022/02/14 01:36:46;;;;;;;16.20;9.07;;;;;;;11.20;52.81;99461.38;4828488;28;120323;-91
2022/02/14 01:39:47;;;;;;;14.55;8.48;;;;;;;11.23;52.29;99461.16;4811808;29;122092;-88
2022/02/14 01:42:23;;;;;;;15.48;9.00;;;;;;;11.36;51.80;99472.53;4830306;28;120259;-88
2022/02/14 01:44:57;;;;;;;13.57;8.60;;;;;;;11.31;51.92;99466.97;4815239;29;119780;-89
2022/02/14 01:47:28;;;;;;;14.63;8.65;;;;;;;11.31;51.87;99464.22;4828062;28;119783;-91
2022/02/14 01:50:15;;;;;;;13.77;8.30;;;;;;;11.15;51.76;99429.16;4812889;29;122568;-87
2022/02/14 01:53:11;;;;;;;17.33;8.75;;;;;;;11.50;52.48;99478.38;4814175;29;120075;-89
2022/02/14 01:55:57;;;;;;;16.23;8.82;;;;;;;11.08;51.91;99425.59;4811589;29;120314;-91
2022/02/14 01:58:35;;;;;;;18.42;8.55;;;;;;;11.08;51.76;99422.84;4829390;28;119487;-89
2022/02/14 02:01:06;;;;;;;18.70;8.98;;;;;;;11.04;52.67;99416.81;4813599;29;120798;-88
2022/02/14 02:03:55;;;;;;;13.48;8.05;;;;;;;11.04;52.70;99414.06;4812712;29;123151;-87
2022/02/14 02:06:31;;;;;;;16.70;8.43;;;;;;;11.02;51.99;99394.59;4812208;29;119827;-88
2022/02/14 02:09:02;;;;;;;13.38;8.50;;;;;;;11.33;52.03;99440.53;4814961;29;119470;-87
2022/02/14 02:14:41;;;;;;;12.98;8.90;;;;;;;11.00;51.98;99388.84;4829426;28;119810;-87
2022/02/14 02:17:40;;;;;;;14.93;8.27;;;;;;;10.99;51.89;99387.34;4814794;29;120825;-87
2022/02/14 02:20:42;;;;;;;;;;;;;;;;;;;;;
2022/02/14 02:23:07;;;;;;;;;;;;;;;;;;;;;
2022/02/14 02:25:36;;;;;;;13.80;8.10;;;;;;;11.19;51.45;99413.22;4831421;28;119962;-91
2022/02/14 02:28:20;;;;;;;16.10;8.35;;;;;;;11.06;52.02;99388.88;4815436;29;120502;-90
2022/02/14 02:31:19;;;;;;;14.80;8.45;;;;;;;10.92;52.04;99368.56;4803136;29;119456;-89
2022/02/14 02:33:47;;;;;;;12.68;7.82;;;;;;;11.10;52.07;99391.41;4818737;28;119950;-90
2022/02/14 02:36:50;;;;;;;13.43;7.57;;;;;;;10.81;52.87;99340.28;4815167;29;119929;-91
2022/02/14 02:39:50;;;;;;;17.15;8.38;;;;;;;11.05;52.36;99377.16;4809989;28;121438;-91
2022/02/14 02:42:42;;;;;;;10.90;7.63;;;;;;;10.88;52.32;99350.81;4814984;29;120584;-91
2022/02/14 02:45:18;;;;;;;12.40;7.80;;;;;;;11.00;52.13;99366.91;4818620;29;119553;-88
2022/02/14 02:48:11;;;;;;;;;;;;;;;;;;;;;
2022/02/14 02:51:05;;;;;;;15.85;7.60;;;;;;;11.27;52.46;99382.09;4810799;29;119706;-91
2022/02/14 02:53:33;;;;;;;12.68;8.13;;;;;;;11.16;52.07;99368.31;4828997;28;121105;-90
2022/02/14 02:56:14;;;;;;;;;;;;;;;;;;;;;
2022/02/14 02:58:55;;;;;;;;;;;;;;;;;;;;;
2022/02/14 03:01:25;;;;;;;10.95;7.47;;;;;;;11.21;52.53;99358.59;4827105;28;119890;-89
2022/02/14 03:04:24;;;;;;;16.73;7.65;;;;;;;11.15;52.52;99322.88;4812794;29;120118;-92
2022/02/14 03:06:52;;;;;;;11.30;7.35;;;;;;;11.22;52.14;99336.16;4791039;29;119682;-91
2022/02/14 03:09:21;;;;;;;12.68;7.57;;;;;;;11.58;52.25;99373.09;4818305;29;123383;-90
2022/02/14 03:12:20;;;;;;;;;;;;;;;;;;;;;
2022/02/14 03:14:56;;;;;;;12.43;7.20;;;;;;;11.36;51.92;99340.03;4817740;29;122218;-89
2022/02/14 03:18:00;;;;;;;;;;;;;;;;;;;;;
2022/02/14 03:20:36;;;;;;;12.07;7.25;;;;;;;11.39;51.77;99333.56;4818344;29;120257;-90
2022/02/14 03:23:12;;;;;;;12.23;7.50;;;;;;;11.37;52.96;99327.81;4802678;29;120842;-89
2022/02/14 03:25:40;;;;;;;13.50;7.30;;;;;;;11.38;52.12;99321.06;4817991;29;120742;-90
2022/02/14 03:28:11;;;;;;;14.07;7.10;;;;;;;11.34;52.30;99310.28;4804072;29;119578;-90
2022/02/14 03:31:03;;;;;;;13.63;7.70;;;;;;;11.23;52.69;99288.25;4833910;28;119731;-88
2022/02/14 03:33:32;;;;;;;10.45;7.05;;;;;;;11.32;52.45;99307.28;4813560;29;119759;-90
2022/02/14 03:36:28;;;;;;;;;;;;;;;;;;;;;
2022/02/14 03:39:30;;;;;;;15.13;6.75;;;;;;;11.44;51.64;99315.59;4816194;29;120288;-90
2022/02/14 03:42:08;;;;;;;13.07;7.28;;;;;;;11.52;51.81;99325.63;4817933;29;121486;-91
2022/02/14 03:44:36;;;;;;;14.68;7.30;;;;;;;11.45;52.46;99314.38;4825687;28;120619;-89
2022/02/14 03:47:33;;;;;;;;;;;;;;;;;;;;;
2022/02/14 03:50:19;;;;;;;;;;;;;;;;;;;;;
2022/02/14 03:52:56;;;;;;;13.32;7.35;;;;;;;11.77;52.36;99323.28;4816485;29;122239;-91
2022/02/14 03:55:38;;;;;;;15.15;6.60;;;;;;;11.36;52.97;99269.41;4836305;28;120144;-88
2022/02/14 03:58:07;;;;;;;14.43;6.85;;;;;;;11.53;52.62;99285.19;4834176;28;120428;-90
2022/02/14 04:00:58;;;;;;;11.07;6.28;;;;;;;11.80;53.02;99319.59;4839422;23;121269;-90
2022/02/14 04:03:24;;;;;;;15.60;6.95;;;;;;;11.80;52.07;99314.09;4817744;29;120891;-91
2022/02/14 04:06:10;;;;;;;15.30;6.53;;;;;;;11.67;53.97;99298.78;4808869;29;122283;-91
2022/02/14 04:08:39;;;;;;;12.05;6.40;;;;;;;11.45;53.19;99251.22;4809928;29;121231;-88
2022/02/14 04:11:37;;;;;;;13.18;6.22;;;;;;;11.77;52.46;99298.56;4817547;29;120056;-91
2022/02/14 04:14:33;;;;;;;11.15;6.57;;;;;;;11.45;52.02;99248.47;4803850;29;120064;-89
2022/02/14 04:17:26;;;;;;;12.80;6.47;;;;;;;11.89;52.34;99300.19;4806663;29;120546;-90
2022/02/14 04:20:03;;;;;;;10.88;6.07;;;;;;;11.52;52.01;99248.75;4827823;29;120042;-89
2022/02/14 04:22:37;;;;;;;12.85;6.55;;;;;;;11.54;52.50;99251.00;4817089;29;121359;-89
2022/02/14 04:25:10;;;;;;;;;;;;;;;11.94;52.32;99302.19;4830256;28;119686;-89
2022/02/14 04:27:48;;;;;;;;;;;;;;;;;;;;;
2022/02/14 04:30:19;;;;;;;13.35;6.43;;;;;;;11.46;52.34;99220.53;4814478;29;122985;-91
2022/02/14 04:33:11;;;;;;;9.90;6.00;;;;;;;11.80;53.74;99275.63;4816096;28;119825;-92
2022/02/14 04:36:12;;;;;;;;;;;;;;;;;;;;;
2022/02/14 04:38:58;;;;;;;13.63;6.78;;;;;;;11.56;52.83;99218.31;4832083;28;123388;-90
2022/02/14 04:41:57;;;;;;;14.70;7.05;;;;;;;11.74;52.78;99239.88;4814222;29;120152;-92
2022/02/14 04:44:36;;;;;;;12.57;6.65;;;;;;;11.86;53.00;99248.97;4820311;29;123512;-92
2022/02/14 04:47:31;;;;;;;18.30;6.82;;;;;;;11.62;52.16;99214.38;4812583;28;119533;-90
2022/02/14 04:50:07;;;;;;;12.63;6.10;;;;;;;11.71;52.43;99212.66;4820064;29;121587;-90
2022/02/14 04:52:59;;;;;;;;;;;;;;;;;;;;;
2022/02/14 04:55:36;;;;;;;16.90;6.68;;;;;;;11.73;51.89;99204.66;4821699;29;119862;-88
2022/02/14 04:58:33;;;;;;;;;;;;;;;;;;;;;
2022/02/14 05:01:41;;;;;;;9.88;6.30;;;;;;;12.19;52.90;99256.56;4807342;29;123477;-90
2022/02/14 05:04:19;;;;;;;;;;;;;;;;;;;;;
2022/02/14 05:07:19;;;;;;;;;;;;;;;;;;;;;
2022/02/14 05:09:50;;;;;;;12.13;6.57;;;;;;;11.98;52.41;99226.50;4813425;29;119792;-89
2022/02/14 05:12:29;;;;;;;11.93;6.68;;;;;;;11.80;52.05;99199.47;4803668;29;122503;-87
2022/02/14 05:15:11;;;;;;;15.13;6.70;;;;;;;11.88;53.48;99202.50;4817480;29;120224;-88
2022/02/14 05:18:07;;;;;;;;;;;;;;;;;;;;;
2022/02/14 05:20:56;;;;;;;16.42;5.75;;;;;;;11.77;52.63;99199.69;4811776;29;120398;-89
2022/02/14 05:23:25;;;;;;;16.70;6.43;;;;;;;11.91;52.99;99209.75;4788268;29;123304;-90
2022/02/14 05:26:05;;;;;;;;;;;;;;;;;;;;;
2022/02/14 05:28:55;;;;;;;12.60;5.95;;;;;;;11.77;52.21;99185.94;4816608;29;119592;-91
2022/02/14 05:31:59;;;;;;;;;;;;;;;;;;;;;
2022/02/14 05:34:29;;;;;;;14.32;6.90;;;;;;;11.79;52.69;99188.97;4836184;28;121047;-92
2022/02/14 05:37:26;;;;;;;12.85;5.93;;;;;;;11.91;53.21;99204.28;4813044;29;120280;-91
2022/02/14 05:40:01;;;;;;;12.43;6.40;;;;;;;12.01;53.25;99211.03;4817818;29;119962;-88
2022/02/14 05:42:41;;;;;;;;;;;;;;;;;;;;;
2022/02/14 05:45:35;;;;;;;13.65;6.38;;;;;;;12.01;52.97;99208.28;4815808;28;119957;-89
2022/02/14 05:48:06;;;;;;;13.00;6.43;;;;;;;12.04;52.53;99196.31;4817213;29;119940;-91
2022/02/14 05:50:45;;;;;;;11.23;6.05;;;;;;;12.13;52.91;99218.06;4800644;29;122094;-88
2022/02/14 05:53:26;;;;;;;13.70;6.75;;;;;;;12.21;52.17;99238.31;4803085;29;122760;-89
2022/02/14 05:56:05;;;;;;;;;;;;;;;;;;;;;
2022/02/14 05:58:36;;;;;;;12.18;5.65;;;;;;;11.97;52.54;99194.78;4818363;29;122766;-90
2022/02/14 06:01:22;;;;;;;12.30;6.80;;;;;;;11.98;52.50;99201.78;4821557;28;119797;-89
2022/02/14 06:03:58;;;;;;;9.77;5.90;;;;;;;12.06;52.75;99209.53;4818614;29;119541;-89
2022/02/14 06:06:27;;;;;;;12.05;5.75;;;;;;;11.85;52.34;99173.28;4832778;28;122900;-90
2022/02/14 06:09:15;;;;;;;15.50;6.20;;;;;;;11.73;52.79;99166.97;4815782;29;119822;-85
2022/02/14 06:11:51;;;;;;;13.65;6.50;;;;;;;12.00;52.71;99209.53;4814875;29;120073;-87
2022/02/14 06:14:25;;;;;;;13.73;6.50;;;;;;;11.97;52.58;99207.78;4816583;29;120433;-89
2022/02/14 06:17:13;;;;;;;12.85;6.10;;;;;;;11.93;53.32;99210.78;4803477;29;119823;-90
2022/02/14 06:19:53;;;;;;;;;;;;;;;;;;;;;
2022/02/14 06:22:47;;;;;;;14.80;5.93;;;;;;;11.68;53.09;99171.19;4780489;29;119848;-88
2022/02/14 06:25:15;;;;;;;14.95;6.30;;;;;;;11.67;53.39;99169.69;4788781;29;119817;-89
2022/02/14 06:27:57;;;;;;;11.90;5.97;;;;;;;11.82;53.03;99202.47;4832264;28;124561;-91
2022/02/14 06:30:55;;;;;;;;;;;;;;;;;;;;;
2022/02/14 06:33:32;;;;;;;12.98;5.80;;;;;;;12.10;53.56;99234.81;4813894;29;120479;-90
2022/02/14 06:36:13;;;;;;;11.20;5.75;;;;;;;11.60;53.12;99164.69;4817409;29;120581;-90
2022/02/14 06:39:04;;;;;;;;;;;;;;;;;;;;;
2022/02/14 06:41:53;;;;;;;10.32;5.25;;;;;;;11.70;53.16;99173.44;4818379;29;120597;-89
2022/02/14 06:44:47;;;;;;;13.68;5.93;;;;;;;11.80;53.06;99190.47;4789385;29;121198;-89
2022/02/14 06:47:43;;;;;;;;;;;;;;;;;;;;;
2022/02/14 06:50:44;;;;;;;10.40;5.85;;;;;;;11.88;53.86;99211.50;4818377;29;120154;-90
2022/02/14 06:53:30;;;;;;;13.48;6.03;;;;;;;11.55;53.39;99159.16;4816140;28;119552;-89
2022/02/14 06:56:06;;;;;;;9.50;6.00;;;;;;;12.15;54.65;99248.56;4818767;29;120398;-89
2022/02/14 06:58:58;;;;;;;;;;;;;;;;;;;;;
2022/02/14 07:01:54;;;;;;;13.60;5.38;;;;;;;11.94;53.47;99214.28;4831374;28;120023;-89
2022/02/14 07:04:34;;;;;;;11.02;6.13;;;;;;;11.74;53.32;99178.69;4817555;29;120004;-89
2022/02/14 07:07:18;;;;;;;13.77;6.00;;;;;;;11.96;53.06;99218.03;4809498;29;123645;-90
2022/02/14 07:09:50;;;;;;;11.73;5.78;;;;;;;11.73;53.80;99177.94;4817909;29;121304;-90
2022/02/14 07:12:28;;;;;;;;;;;;;;;;;;;;;
2022/02/14 07:15:23;;;;;;;10.53;5.63;;;;;;;11.54;53.33;99161.16;4835203;28;120767;-82
2022/02/14 07:18:21;;;;;;;14.38;5.60;;;;;;;11.63;53.94;99177.44;4829147;28;120325;-89
2022/02/14 07:20:51;;;;;;;12.35;5.78;;;;;;;11.58;54.02;99167.16;4830594;28;121905;-91
2022/02/14 07:23:50;;;;;;;13.80;5.72;;;;;;;11.68;54.81;99173.94;4821719;29;119857;-91
2022/02/14 07:26:28;;;;;;;;;;;;;;;;;;;;;
2022/02/14 07:29:12;;;;;;;14.57;6.03;;;;;;;11.90;54.52;99187.03;4816753;29;123239;-92
2022/02/14 07:32:21;;;;;;;;;;;;;;;;;;;;;
2022/02/14 07:35:33;;;;;;;;;;;;;;;;;;;;;
2022/02/14 07:38:04;;;;;;;12.52;5.90;;;;;;;12.35;53.49;99233.13;4819278;29;119766;-92
2022/02/14 07:41:09;;;;;;;13.50;5.47;;;;;;;12.07;53.70;99189.84;4824138;28;120537;-90
2022/02/14 07:44:21;;;;;;;;;;;;;;;;;;;;;
2022/02/14 07:47:24;;;;;;;10.65;5.22;;;;;;;12.20;53.39;99217.59;4813314;29;119635;-90
2022/02/14 07:50:28;;;;;;;12.45;5.53;;;;;;;11.91;54.66;99154.81;4818924;29;119824;-91
2022/02/14 07:53:34;;;;;;;10.90;5.20;;;;;;;12.17;53.67;99184.84;4805757;28;119525;-90
2022/02/14 07:56:12;;;;;;;10.77;5.22;;;;;;;12.24;52.95;99193.34;4796597;29;119623;-91
2022/02/14 07:59:24;;;;;;;;;;;;;;;;;;;;;
2022/02/14 08:02:18;;;;;;;13.32;5.82;;;;;;;12.24;53.29;99190.59;4820765;29;119316;-94
2022/02/14 08:04:57;;;;;;;10.15;4.72;;;;;;;12.14;53.25;99172.84;4807342;29;121389;-93
2022/02/14 08:07:58;;;;;;;;;;;;;;;;;;;;;
2022/02/14 08:10:36;;;;;;;11.40;5.43;;;;;;;12.23;53.16;99180.84;4822697;29;119414;-89
2022/02/14 08:13:41;;;;;;;;;;;;;;;;;;;;;
2022/02/14 08:16:22;;;;;;;12.43;5.35;;;;;;;12.05;52.79;99162.06;4821026;29;122244;-89
2022/02/14 08:19:01;;;;;;;;;;;;;;;;;;;;;
2022/02/14 08:21:44;;;;;;;12.63;5.40;;;;;;;12.40;52.87;99211.13;4836012;28;121178;-92
2022/02/14 08:25:00;;;;;;;;;;;;;;;;;;;;;
2022/02/14 08:27:58;;;;;;;13.43;5.45;;;;;;;12.14;53.10;99167.34;4840308;28;119602;-92
2022/02/14 08:30:36;;;;;;;13.02;5.45;;;;;;;12.07;53.09;99156.84;4827126;29;120690;-93
2022/02/14 08:33:38;;;;;;;13.30;5.45;;;;;;;12.19;52.68;99168.59;4813028;29;120180;-92
2022/02/14 08:36:30;;;;;;;9.50;5.40;;;;;;;12.05;54.23;99139.34;4804592;29;119516;-94
2022/02/14 08:39:01;;;;;;;14.88;5.72;;;;;;;12.18;53.69;99148.63;4807463;29;123058;-91
2022/02/14 08:44:51;;;;;;;;;;;;;;;;;;;;;
2022/02/14 08:47:55;;;;;;;;;;;;;;;;;;;;;
2022/02/14 08:50:42;;;;;;;;;;;;;;;;;;;;;
2022/02/14 08:53:58;;;;;;;;;;;;;;;;;;;;;
2022/02/14 08:56:41;;;;;;;11.70;5.20;;;;;;;12.54;52.95;99166.16;4825651;29;119564;-90
2022/02/14 08:59:13;;;;;;;11.32;5.75;;;;;;;12.55;53.76;99148.41;4840978;28;119377;-89
2022/02/14 09:02:06;;;;;;;10.98;5.30;;;;;;;12.56;53.27;99146.41;4839093;28;122229;-90
2022/02/14 09:08:01;;;;;;;9.07;5.10;;;;;;;12.72;53.21;99158.63;4825876;29;119317;-92
2022/02/14 09:10:58;;;;;;;;;;;;;;;;;;;;;
2022/02/14 09:13:54;;;;;;;11.23;4.88;;;;;;;12.81;53.04;99158.38;4837073;28;120407;-86
2022/02/14 09:16:54;;;;;;;11.32;5.28;;;;;;;12.81;53.85;99142.63;4810321;29;120043;-90
2022/02/14 09:19:52;;;;;;;13.23;5.05;;;;;;;13.12;53.28;99187.59;4818803;29;121210;-89
2022/02/14 09:22:30;;;;;;;16.45;5.75;;;;;;;12.73;52.69;99111.34;4837650;28;120175;-91
2022/02/14 09:25:43;;;;;;;13.75;4.50;;;;;;;12.82;52.74;99130.38;4793898;29;121003;-87
2022/02/14 09:28:14;;;;;;;12.32;4.90;;;;;;;12.75;52.55;99122.59;4803726;29;119711;-90
2022/02/14 09:31:02;;;;;;;10.30;5.00;;;;;;;13.06;52.13;99170.34;4813558;29;121319;-88
2022/02/14 09:33:36;;;;;;;14.30;5.65;;;;;;;13.01;52.28;99146.31;4812598;29;123131;-85
2022/02/14 09:36:23;;;;;;;;;;;;;;;;;;;;;
2022/02/14 09:39:34;;;;;;;13.02;5.45;;;;;;;13.38;53.11;99193.56;4808327;29;119522;-89
2022/02/14 09:42:42;;;;;;;;;;;;;;;;;;;;;
2022/02/14 09:45:29;;;;;;;;;;;;;;;;;;;;;
2022/02/14 09:48:42;;;;;;;;;;;;;;;;;;;;;
2022/02/14 09:51:37;;;;;;;9.77;5.50;;;;;;;12.99;52.58;99115.81;4822740;28;120961;-92
2022/02/14 09:54:24;;;;;;;10.77;5.20;;;;;;;13.35;52.38;99164.28;4820377;29;119321;-90
2022/02/14 09:56:59;;;;;;;8.98;5.07;;;;;;;13.26;52.26;99159.06;4816832;29;121444;-88
2022/02/14 09:59:37;;;;;;;;;;;;;;;;;;;;;
2022/02/14 10:02:38;;;;;;;;;;;;;;;;;;;;;
2022/02/14 10:05:21;;;;;;;;;;;;;;;13.64;52.54;99187.72;4825555;29;122661;-90
2022/02/14 10:07:55;;;;;;;11.50;4.93;;;;;;;13.40;52.68;99155.25;4825786;28;122082;-90
2022/02/14 10:10:42;;;;;;;11.20;4.50;;;;;;;13.46;52.00;99138.69;4818207;29;122304;-90
2022/02/14 10:13:51;;;;;;;10.98;5.45;;;;;;;13.76;53.18;99182.94;4795404;29;119933;-89
2022/02/14 10:16:24;;;;;;;9.85;4.97;;;;;;;13.47;52.97;99135.44;4805218;29;122107;-89
2022/02/14 10:19:15;;;;;;;8.52;4.20;;;;;;;13.62;53.31;99145.41;4809062;29;123421;-89
2022/02/14 10:22:13;;;;;;;10.57;4.55;;;;;;;13.71;51.93;99142.34;4826571;28;120273;-91
2022/02/14 10:24:48;;;;;;;9.68;4.82;;;;;;;13.74;51.45;99144.09;4804581;29;120899;-87
2022/02/14 10:27:24;;;;;;;9.88;4.57;;;;;;;13.86;52.20;99177.84;4804298;29;119643;-91
2022/02/14 10:30:12;;;;;;;8.43;4.63;;;;;;;13.85;52.36;99162.56;4817596;29;119906;-90
2022/02/14 10:33:22;;;;;;;;;;;;;;;;;;;;;
2022/02/14 10:36:22;;;;;;;;;;;;;;;;;;;;;
2022/02/14 10:39:05;;;;;;;;;;;;;;;;;;;;;
2022/02/14 10:41:50;;;;;;;;;;;;;;;;;;;;;
2022/02/14 10:45:11;;;;;;;10.10;4.45;;;;;;;14.09;51.78;99165.44;4806987;29;119813;-90
2022/02/14 10:48:59;;;;;;;10.70;5.03;;;;;;;14.47;52.35;99213.38;4819123;28;120109;-88
2022/02/14 10:51:53;;;;;;;11.68;4.53;;;;;;;14.30;52.97;99158.28;4816313;29;120499;-90
2022/02/14 10:54:37;;;;;;;8.80;4.20;;;;;;;14.61;52.50;99200.47;4814076;29;120307;-88
2022/02/14 10:57:36;;;;;;;8.60;4.82;;;;;;;14.73;52.22;99207.41;4795532;29;121906;-88
2022/02/14 11:00:19;;;;;;;;;;;;;;;;;;;;;
2022/02/14 11:03:23;;;;;;;10.40;4.55;;;;;;;14.44;51.90;99164.75;4800782;29;119751;-89
2022/02/14 11:05:59;;;;;;;;;;;;;;;14.61;52.47;99203.97;4802430;29;122826;-90
2022/02/14 11:08:56;;;;;;;7.82;4.57;;;;;;;14.47;53.95;99185.03;4828031;28;120376;-88
2022/02/14 11:11:37;;;;;;;;;;;;;;;14.65;52.26;99204.44;4828047;28;120060;-91
2022/02/14 11:14:36;;;;;;;;;;;;;;;;;;;;;
2022/02/14 11:17:15;;;;;;;;;;;;;;;;;;;;;
2022/02/14 11:20:19;;;;;;;;;;;;;;;;;;;;;
2022/02/14 11:23:34;;;;;;;10.02;4.63;;;;;;;14.49;54.01;99144.63;4800560;29;121242;-88
2022/02/14 11:26:57;;;;;;;;;;;;;;;;;;;;;
2022/02/14 11:30:04;;;;;;;6.88;4.03;;;;;;;14.60;51.99;99158.31;4812963;29;122784;-89
2022/02/14 11:33:13;;;;;;;6.78;4.05;;;;;;;15.11;53.97;99227.63;4822702;28;120566;-88
2022/02/14 11:36:06;;;;;;;7.28;4.28;;;;;;;14.63;54.40;99151.03;4831960;28;122511;-88
2022/02/14 11:38:59;;;;;;;9.00;4.60;;;;;;;14.93;54.49;99192.44;4800998;29;120526;-88
2022/02/14 11:41:47;;;;;;;8.23;3.95;;;;;;;14.81;53.03;99169.69;4792084;29;121286;-89
2022/02/14 11:44:20;;;;;;;8.82;4.32;;;;;;;15.22;53.17;99221.28;4799154;29;122187;-88
2022/02/14 11:47:03;;;;;;;9.17;3.53;;;;;;;15.27;52.79;99223.22;4800958;29;123249;-88
2022/02/14 11:49:50;;;;;;;7.93;3.92;;;;;;;15.28;53.27;99217.19;4816146;29;121509;-88
2022/02/14 11:52:26;;;;;;;7.43;4.07;;;;;;;15.27;54.48;99206.66;4818226;29;120323;-89
2022/02/14 11:55:12;;;;;;;;;;;;;;;;;;;;;
2022/02/14 11:58:12;;;;;;;6.88;3.92;;;;;;;14.81;53.71;99172.44;4818822;29;119841;-88
2022/02/14 12:00:40;;;;;;;9.63;4.07;;;;;;;14.78;54.63;99181.00;4814187;29;123564;-90
2022/02/14 12:03:17;;;;;;;7.63;4.00;;;;;;;15.20;54.25;99246.66;4807132;29;119764;-89
2022/02/14 12:06:02;;;;;;;10.77;3.75;;;;;;;14.67;53.44;99166.06;4817462;29;122722;-88
2022/02/14 12:09:18;;;;;;;;;;;;;;;;;;;;;
2022/02/14 12:12:17;;;;;;;8.63;3.90;;;;;;;14.51;55.09;99180.72;4805859;29;119724;-90
2022/02/14 12:14:53;;;;;;;9.77;4.25;;;;;;;14.51;55.06;99180.72;4785556;29;123410;-87
2022/02/14 12:21:18;;;;;;;5.72;3.88;;;;;;;15.03;56.12;99262.59;4809037;28;120947;-89
2022/02/14 12:23:56;;;;;;;8.02;4.10;;;;;;;15.04;57.71;99291.72;4829189;28;120418;-88
2022/02/14 12:26:33;;;;;;;6.90;3.60;;;;;;;14.66;60.10;99235.53;4820169;29;119782;-87
2022/02/14 12:32:46;;;;;;;7.80;2.92;;;;;;;14.80;59.98;99291.66;4813925;29;123159;-87
2022/02/14 12:35:28;;;;;;;6.88;3.10;;;;;;;14.60;59.17;99288.00;4828261;28;120708;-86
2022/02/14 12:38:14;;;;;;;7.18;2.85;;;;;;;14.37;59.91;99259.03;4817792;29;122089;-88
2022/02/14 12:41:01;;;;;;;9.00;3.03;;;;;;;14.32;60.48;99254.31;4828849;28;120262;-87
2022/02/14 12:43:42;;;;;;;7.93;3.03;;;;;;;14.75;59.94;99326.31;4781190;29;121765;-88
2022/02/14 12:46:21;;;;;;;11.02;3.58;;;;;;;14.46;58.66;99289.13;4795293;29;123612;-89
2022/02/14 12:49:03;;;;;;;;;;;;;;;;;;;;;
2022/02/14 12:51:34;;;;;;;7.05;3.13;;;;;;;14.21;60.13;99279.19;4805350;29;122837;-87
2022/02/14 12:54:06;;;;;;;10.63;3.50;;;;;;;14.16;58.98;99272.44;4819731;28;120861;-86
2022/02/14 12:56:41;;;;;;;10.48;3.33;;;;;;;14.00;59.30;99235.44;4796129;29;120437;-88
2022/02/14 12:59:11;;;;;;;7.90;3.22;;;;;;;14.06;60.42;99241.66;4811296;29;121833;-89
2022/02/14 13:01:41;;;;;;;7.43;3.20;;;;;;;14.03;59.99;99231.66;4799980;29;122989;-88
2022/02/14 13:04:12;;;;;;;11.55;3.40;;;;;;;14.60;58.45;99309.34;4780993;29;122283;-87
2022/02/14 13:06:49;;;;;;;9.45;3.70;;;;;;;14.42;59.73;99283.06;4811761;29;123464;-87
2022/02/14 13:09:28;;;;;;;8.65;3.40;;;;;;;14.64;60.12;99304.28;4826802;28;121323;-89
2022/02/14 13:12:09;;;;;;;9.77;3.23;;;;;;;14.19;59.24;99249.34;4829085;28;121471;-87
2022/02/14 13:14:44;;;;;;;8.65;3.17;;;;;;;14.56;58.76;99293.06;4826782;28;120506;-89
2022/02/14 13:17:13;;;;;;;11.98;3.65;;;;;;;14.22;60.15;99253.13;4828056;28;120242;-88
2022/02/14 13:19:55;;;;;;;11.20;3.53;;;;;;;14.64;60.30;99320.84;4797440;29;123677;-88
2022/02/14 13:22:34;;;;;;;10.10;3.28;;;;;;;14.51;58.48;99299.38;4779026;29;123630;-87
2022/02/14 13:25:02;;;;;;;12.02;3.50;;;;;;;14.24;59.68;99251.34;4814755;29;120319;-90
2022/02/14 13:27:32;;;;;;;12.65;3.45;;;;;;;14.26;58.28;99259.09;4822446;29;123360;-92
2022/02/14 13:30:11;;;;;;;8.38;3.17;;;;;;;14.58;57.32;99296.06;4795951;29;121163;-88
2022/02/14 13:32:45;;;;;;;10.77;3.60;;;;;;;14.68;58.65;99305.53;4811182;29;122403;-92
2022/02/14 13:35:17;;;;;;;8.88;3.33;;;;;;;14.64;57.26;99304.28;4797823;29;123406;-89
2022/02/14 13:37:49;;;;;;;10.45;3.15;;;;;;;14.86;56.96;99342.03;4812202;29;121587;-91
2022/02/14 13:40:36;;;;;;;9.77;2.90;;;;;;;14.56;57.52;99298.56;4811477;29;121948;-90
2022/02/14 13:43:07;;;;;;;9.23;2.88;;;;;;;14.82;56.63;99325.75;4797922;29;123238;-88
2022/02/14 13:45:51;;;;;;;8.55;2.55;;;;;;;14.55;55.80;99302.59;4811983;29;120236;-90
2022/02/14 13:48:30;;;;;;;7.75;2.72;;;;;;;14.75;58.21;99331.84;4816272;29;119949;-88
2022/02/14 13:51:01;;;;;;;8.52;2.85;;;;;;;14.63;56.74;99291.75;4827851;28;120274;-90
2022/02/14 13:53:31;;;;;;;3.55;1.73;;;;;;;14.41;55.45;99254.00;4814297;29;120815;-91
2022/02/14 13:56:06;;;;;;;4.97;2.40;;;;;;;14.83;56.26;99318.22;4794316;29;124956;-90
2022/02/14 13:58:35;;;;;;;5.97;1.85;;;;;;;14.51;54.57;99291.09;4811678;29;120122;-88
2022/02/14 14:01:04;;;;;;;8.27;2.05;;;;;;;14.55;54.97;99310.88;4828535;28;122009;-87
2022/02/14 14:03:38;;;;;;;5.85;1.85;;;;;;;14.42;55.21;99280.31;4797922;29;123097;-91
2022/02/14 14:06:06;;;;;;;3.78;1.70;;;;;;;14.48;54.61;99300.38;4781769;29;119960;-89
2022/02/14 14:08:39;;;;;;;6.47;1.60;;;;;;;14.46;55.72;99289.13;4817050;29;121028;-89
2022/02/14 14:11:08;;;;;;;4.90;1.50;;;;;;;14.52;54.17;99276.03;4795303;29;120498;-89
2022/02/14 14:13:42;;;;;;;3.70;1.48;;;;;;;14.56;54.22;99297.81;4795898;29;121845;-90
2022/02/14 14:16:11;;;;;;;6.28;1.70;;;;;;;14.79;55.96;99337.06;4793408;29;123340;-89
2022/02/14 14:18:37;;;;;;;3.42;1.42;;;;;;;14.59;56.70;99297.56;4809786;29;121756;-89
2022/02/14 14:21:08;;;;;;;3.65;1.35;;;;;;;14.60;53.85;99304.56;4808983;29;119712;-88
2022/02/14 14:23:37;;;;;;;6.82;1.35;;;;;;;14.48;53.99;99289.34;4793805;29;122946;-88
2022/02/14 14:26:04;;;;;;;5.32;1.30;;;;;;;14.54;53.25;99305.88;4805501;29;120042;-89
2022/02/14 14:28:35;;;;;;;4.53;1.40;;;;;;;14.62;53.21;99328.88;4779075;29;122447;-89